Time;durP1;ratioP1;P1;durP2;ratioP2;P2;SDS_P1;SDS_P2;PMS_P1;PMS_P2;Temp;Humidity;BMP_temperature;BMP_pressure;BME280_temperature;BME280_humidity;BME280_pressure;Samples;Min_cycle;Max_cycle;Signal;HPM_P1;HPM_P2
2023/05/08 00:02:19;;;;;;;6.40;4.90;;;;;;;17.37;81.22;99445.94;7352764;39;21269;31
2023/05/08 00:08:00;;;;;;;6.70;4.75;;;;;;;17.32;81.43;99451.16;7377909;39;21359;31
2023/05/08 00:18:31;;;;;;;7.40;5.63;;;;;;;17.27;81.51;99455.50;7408938;39;20270;31
2023/05/08 00:28:55;;;;;;;7.10;6.40;;;;;;;17.38;81.25;99454.91;7512694;38;21151;31
2023/05/08 00:34:30;;;;;;;9.40;7.70;;;;;;;17.29;82.67;99458.88;7518483;38;21122;31
2023/05/08 00:39:51;;;;;;;9.70;8.70;;;;;;;17.25;82.18;99457.59;7470481;39;20265;31
2023/05/08 00:45:26;;;;;;;8.78;7.94;;;;;;;17.30;82.69;99453.22;7378756;39;20247;31
2023/05/08 00:51:12;;;;;;;11.20;8.40;;;;;;;17.33;81.98;99457.44;7378903;39;21196;31
2023/05/08 01:01:49;;;;;;;11.37;9.50;;;;;;;17.33;82.69;99454.72;7381261;39;20391;31
2023/05/08 01:12:30;;;;;;;13.10;11.10;;;;;;;17.18;83.21;99448.56;7510709;38;20326;31
2023/05/08 01:23:14;;;;;;;16.00;12.17;;;;;;;17.08;83.98;99452.50;7468988;39;21314;31
2023/05/08 01:28:52;;;;;;;14.40;12.50;;;;;;;16.99;84.40;99459.16;7513823;38;20319;31
2023/05/08 01:39:33;;;;;;;13.70;11.70;;;;;;;16.98;84.29;99464.81;7490502;38;21082;31
2023/05/08 01:45:06;;;;;;;13.50;11.05;;;;;;;16.99;84.48;99466.47;7420996;39;20295;31
2023/05/08 01:50:44;;;;;;;12.57;11.07;;;;;;;17.07;84.39;99469.88;7417187;39;21379;31
2023/05/08 01:56:15;;;;;;;13.90;11.93;;;;;;;17.07;84.59;99472.59;7401790;39;20254;31
2023/05/08 02:07:46;;;;;;;20.50;16.40;;;;;;;16.93;85.03;99475.47;7411577;39;21250;31
2023/05/08 02:18:25;;;;;;;22.87;17.70;;;;;;;16.97;85.63;99468.56;7472138;38;20333;31
2023/05/08 02:24:01;;;;;;;29.60;20.30;;;;;;;16.94;85.04;99472.53;7513296;38;20237;31
2023/05/08 02:29:36;;;;;;;28.30;21.27;;;;;;;16.90;85.12;99476.69;7419470;39;20316;31
2023/05/08 02:35:11;;;;;;;25.67;18.73;;;;;;;16.80;86.22;99478.94;7443072;39;21274;31
2023/05/08 02:40:43;;;;;;;22.67;18.43;;;;;;;16.92;85.54;99485.50;7358272;39;20247;31
2023/05/08 02:46:16;;;;;;;25.60;18.20;;;;;;;16.96;85.39;99484.06;7377432;39;21337;31
2023/05/08 02:51:52;;;;;;;25.00;18.80;;;;;;;16.95;85.99;99481.53;7380557;39;21134;31
2023/05/08 02:57:25;;;;;;;27.27;21.60;;;;;;;16.98;85.94;99489.31;7388410;39;20255;31
2023/05/08 03:03:01;;;;;;;27.55;21.55;;;;;;;16.89;85.26;99488.66;7479918;38;20234;31
2023/05/08 03:08:35;;;;;;;28.60;21.87;;;;;;;16.85;85.96;99484.63;7448039;39;20253;31
2023/05/08 03:14:10;;;;;;;29.00;20.77;;;;;;;16.88;86.37;99480.66;7490972;38;20238;31
2023/05/08 03:19:46;;;;;;;26.40;21.30;;;;;;;16.84;86.42;99474.78;7440475;39;21288;31
2023/05/08 03:25:20;;;;;;;26.30;20.37;;;;;;;16.80;87.03;99473.50;7418759;39;20238;31
2023/05/08 03:30:49;;;;;;;20.70;15.35;;;;;;;16.76;86.51;99468.66;7379740;39;20243;31
2023/05/08 03:36:25;;;;;;;18.00;14.40;;;;;;;16.77;86.73;99473.88;7413001;39;20242;31
2023/05/08 03:41:57;;;;;;;22.10;16.30;;;;;;;16.77;86.92;99476.59;7382196;39;20271;31
2023/05/08 03:47:32;;;;;;;19.20;15.57;;;;;;;16.67;88.07;99481.59;7440122;38;20227;31
2023/05/08 03:53:07;;;;;;;21.60;15.77;;;;;;;16.73;86.44;99488.94;7489426;38;20250;31
2023/05/08 03:58:40;;;;;;;20.97;15.43;;;;;;;16.82;86.26;99495.06;7462484;39;20277;31
2023/05/08 04:04:13;;;;;;;24.63;18.03;;;;;;;16.79;87.30;99488.16;7460543;39;20238;31
2023/05/08 04:09:49;;;;;;;25.37;19.53;;;;;;;16.77;86.93;99492.09;7420849;39;20243;31
2023/05/08 04:15:24;;;;;;;24.15;17.85;;;;;;;16.80;87.07;99498.00;7384365;39;21307;31
2023/05/08 04:26:03;;;;;;;27.47;21.23;;;;;;;16.89;86.70;99504.97;7355665;39;20267;31
2023/05/08 04:31:36;;;;;;;29.50;22.10;;;;;;;16.86;86.80;99504.50;7357635;39;21245;31
2023/05/08 04:37:07;;;;;;;30.67;22.10;;;;;;;16.88;86.65;99505.16;7326822;39;20235;31
2023/05/08 04:42:46;;;;;;;33.10;22.50;;;;;;;16.82;87.65;99497.78;7126616;39;20254;31
2023/05/08 04:48:17;;;;;;;33.25;22.25;;;;;;;16.78;87.09;99504.69;7462189;39;20255;31
2023/05/08 04:53:38;;;;;;;32.35;21.90;;;;;;;16.83;86.37;99507.66;7464253;38;20246;31
2023/05/08 04:58:59;;;;;;;28.30;21.40;;;;;;;16.84;86.26;99507.47;7465119;39;20521;31
2023/05/08 05:04:41;;;;;;;;;;;;;;;;;;;;;
2023/05/08 05:10:07;;;;;;;30.30;21.10;;;;;;;16.80;87.36;99525.22;7338118;39;20240;31
2023/05/08 05:15:40;;;;;;;26.87;20.17;;;;;;;16.82;87.25;99528.59;7397991;39;21216;31
2023/05/08 05:21:16;;;;;;;26.20;18.90;;;;;;;16.86;87.04;99529.03;7424865;39;20269;31
2023/05/08 05:26:30;;;;;;;26.63;20.17;;;;;;;16.88;86.78;99533.25;5284748;48;20280;-70
2023/05/08 05:31:48;;;;;;;25.50;19.70;;;;;;;16.85;87.84;99535.53;7419611;39;21245;31
2023/05/08 05:37:23;;;;;;;23.35;17.80;;;;;;;16.83;87.17;99541.16;7440110;39;20329;31
2023/05/08 05:42:56;;;;;;;23.20;17.45;;;;;;;16.83;87.64;99557.50;7450253;39;20409;31
2023/05/08 05:48:17;;;;;;;21.05;16.45;;;;;;;16.83;87.15;99549.34;7443090;39;20258;31
2023/05/08 05:53:50;;;;;;;22.60;17.23;;;;;;;16.85;87.32;99554.59;7441077;39;21337;31
2023/05/08 05:59:08;;;;;;;21.50;16.80;;;;;;;16.83;88.45;99546.59;7423470;39;21234;31
2023/05/08 06:04:40;;;;;;;20.20;15.70;;;;;;;16.82;88.61;99552.25;7425792;39;21275;31
2023/05/08 06:10:12;;;;;;;18.00;14.30;;;;;;;16.77;89.10;99546.53;7447673;39;21290;31
2023/05/08 06:15:29;;;;;;;17.85;13.85;;;;;;;16.75;88.98;99557.66;7438419;39;20279;31
2023/05/08 06:21:04;;;;;;;17.30;13.63;;;;;;;16.73;89.38;99553.41;7408109;39;20244;31
2023/05/08 06:26:36;;;;;;;15.17;12.97;;;;;;;16.77;89.04;99565.59;7355817;39;21279;31
2023/05/08 06:32:08;;;;;;;13.47;12.07;;;;;;;16.74;89.66;99555.97;7378831;39;20346;31
2023/05/08 06:37:33;;;;;;;17.60;14.00;;;;;;;16.82;89.37;99555.81;7318632;39;20260;31
2023/05/08 06:43:06;;;;;;;18.60;15.53;;;;;;;16.90;88.77;99552.09;7342838;39;20260;31
2023/05/08 06:48:38;;;;;;;18.93;15.47;;;;;;;16.88;89.38;99565.06;7346787;39;20346;31
2023/05/08 06:53:56;;;;;;;19.67;15.67;;;;;;;16.85;88.63;99563.56;7383258;39;21273;31
2023/05/08 06:59:27;;;;;;;17.70;15.05;;;;;;;16.85;88.44;99565.47;7409460;39;20267;31
2023/05/08 07:05:02;;;;;;;20.20;15.30;;;;;;;16.83;88.77;99562.09;7411185;39;20349;31
2023/05/08 07:10:38;;;;;;;20.25;16.45;;;;;;;16.87;88.95;99563.38;7398137;39;20240;31
2023/05/08 07:16:12;;;;;;;19.15;15.35;;;;;;;16.81;88.82;99573.19;7410444;39;21410;31
2023/05/08 07:21:33;;;;;;;19.95;15.30;;;;;;;16.82;89.92;99577.59;7421113;39;20407;31
2023/05/08 07:26:53;;;;;;;19.95;15.40;;;;;;;16.76;89.49;99572.09;7469984;38;20370;31
2023/05/08 07:32:29;;;;;;;21.70;16.10;;;;;;;16.79;89.78;99578.00;7442004;39;21186;31
2023/05/08 07:38:02;;;;;;;20.00;16.30;;;;;;;16.87;89.64;99579.72;7442606;39;21209;31
2023/05/08 07:43:34;;;;;;;17.60;14.67;;;;;;;16.91;89.52;99584.56;7439286;39;21909;31
2023/05/08 07:54:12;;;;;;;17.33;15.10;;;;;;;16.88;89.91;99584.97;7428619;39;20414;31
2023/05/08 07:59:47;;;;;;;17.37;14.60;;;;;;;16.98;89.39;99581.91;7442386;39;20254;31
2023/05/08 08:05:21;;;;;;;14.30;12.80;;;;;;;16.90;90.21;99588.34;7379183;39;21258;31
2023/05/08 08:10:55;;;;;;;15.60;12.80;;;;;;;16.94;90.04;99580.59;7450053;38;20265;31
2023/05/08 08:16:31;;;;;;;13.70;10.82;;;;;;;16.94;89.84;99591.50;7516224;38;20361;31
2023/05/08 08:21:51;;;;;;;11.85;9.48;;;;;;;16.95;89.31;99604.94;7487877;38;20256;31
2023/05/08 08:27:24;;;;;;;15.40;10.60;;;;;;;16.89;90.86;99594.84;7442186;39;21410;31
2023/05/08 08:32:41;;;;;;;14.05;10.20;;;;;;;16.95;89.50;99610.38;7438995;39;20247;31
2023/05/08 08:38:01;;;;;;;12.55;10.70;;;;;;;17.11;88.76;99614.69;7421901;39;20370;31
2023/05/08 08:43:33;;;;;;;11.10;10.00;;;;;;;17.10;88.51;99607.56;7399847;39;21352;31
2023/05/08 08:49:05;;;;;;;12.17;10.87;;;;;;;17.04;88.77;99598.28;7412564;39;20240;31
2023/05/08 08:54:40;;;;;;;11.50;10.30;;;;;;;17.18;88.68;99603.84;7439467;39;21264;31
2023/05/08 09:00:16;;;;;;;12.95;11.35;;;;;;;17.31;88.57;99610.22;7479283;38;20330;31
2023/05/08 09:05:48;;;;;;;11.75;10.55;;;;;;;17.43;88.45;99613.22;7486211;39;20358;31
2023/05/08 09:11:18;;;;;;;13.05;10.10;;;;;;;17.56;87.76;99611.41;7446240;39;20376;31
2023/05/08 09:16:52;;;;;;;12.60;10.90;;;;;;;17.72;86.85;99620.34;7423404;39;21371;31
2023/05/08 09:22:25;;;;;;;11.77;9.80;;;;;;;17.90;85.96;99615.19;7430896;39;21267;31
2023/05/08 09:28:01;;;;;;;12.20;10.90;;;;;;;17.96;86.36;99615.19;7442105;39;20250;31
2023/05/08 09:33:35;;;;;;;12.23;10.60;;;;;;;18.03;85.92;99615.25;7443482;39;21328;31
2023/05/08 09:38:55;;;;;;;11.16;9.86;;;;;;;18.17;85.47;99627.00;7402421;39;21162;31
2023/05/08 09:44:15;;;;;;;12.00;10.20;;;;;;;18.23;84.81;99628.94;7424647;39;21931;31
2023/05/08 09:49:48;;;;;;;14.27;11.40;;;;;;;18.13;85.11;99631.19;7401756;39;21231;31
2023/05/08 09:55:21;;;;;;;14.60;11.60;;;;;;;18.17;84.70;99632.47;7406768;39;20317;31
2023/05/08 10:00:50;;;;;;;12.60;10.30;;;;;;;18.20;84.33;99637.53;7357682;39;20240;31
2023/05/08 10:11:30;;;;;;;14.50;11.45;;;;;;;18.08;84.95;99642.72;7420294;39;20368;31
2023/05/08 10:22:10;;;;;;;16.10;11.70;;;;;;;18.17;84.24;99637.94;7467090;38;20300;31
2023/05/08 10:27:49;;;;;;;15.85;11.35;;;;;;;18.05;84.30;99634.97;7489549;38;20331;31
2023/05/08 10:33:22;;;;;;;15.23;11.50;;;;;;;17.96;84.74;99636.19;7440875;39;21097;31
2023/05/08 10:38:57;;;;;;;15.20;11.20;;;;;;;17.88;84.85;99639.94;7425540;39;20246;31
2023/05/08 10:44:30;;;;;;;15.20;11.77;;;;;;;17.96;84.24;99637.03;7376116;39;20362;31
2023/05/08 10:55:16;;;;;;;19.43;17.53;;;;;;;17.94;85.40;99633.69;7397687;39;20286;31
2023/05/08 11:00:48;;;;;;;21.15;16.25;;;;;;;17.88;85.11;99629.03;7394749;39;20419;31
2023/05/08 11:06:17;;;;;;;20.10;17.80;;;;;;;17.86;85.69;99622.91;7400108;39;21978;31
2023/05/08 11:11:54;;;;;;;20.77;18.57;;;;;;;17.80;85.82;99623.75;7141485;39;20214;31
2023/05/08 11:17:30;;;;;;;22.00;19.00;;;;;;;17.94;85.72;99617.31;7376611;39;21403;31
2023/05/08 11:28:23;;;;;;;19.50;16.73;;;;;;;18.27;84.96;99613.84;7419742;39;20266;31
2023/05/08 11:33:59;;;;;;;20.57;17.27;;;;;;;18.41;84.86;99600.03;7437187;39;20289;31
2023/05/08 11:39:20;;;;;;;19.30;16.70;;;;;;;18.53;83.64;99600.28;7404177;39;20239;31
2023/05/08 11:44:54;;;;;;;22.40;18.20;;;;;;;18.50;82.77;99611.59;7420491;39;21912;31
2023/05/08 11:50:28;;;;;;;19.00;17.00;;;;;;;18.62;83.65;99603.63;7444657;39;21347;31
2023/05/08 11:56:02;;;;;;;18.20;15.30;;;;;;;18.68;82.68;99614.59;7384585;39;21243;31
2023/05/08 12:01:38;;;;;;;16.85;15.15;;;;;;;18.72;82.23;99609.53;7406771;39;21432;31
2023/05/08 12:07:12;;;;;;;16.50;14.90;;;;;;;18.75;82.13;99609.97;7421255;39;20250;31
2023/05/08 12:12:52;;;;;;;15.37;13.87;;;;;;;19.10;81.01;99604.28;7397353;39;21234;31
2023/05/08 12:18:27;;;;;;;15.05;13.45;;;;;;;19.45;79.84;99597.53;7417342;39;20293;31
2023/05/08 12:24:02;;;;;;;14.35;12.75;;;;;;;19.67;79.97;99596.19;7463178;39;20241;31
2023/05/08 12:29:50;;;;;;;18.77;14.13;;;;;;;19.62;79.48;99596.00;7438011;39;21385;31
2023/05/08 12:35:22;;;;;;;15.20;13.57;;;;;;;19.57;79.44;99595.00;7397621;39;21284;31
2023/05/08 12:40:54;;;;;;;13.53;11.73;;;;;;;19.53;79.36;99596.44;7374794;39;21252;31
2023/05/08 12:46:26;;;;;;;13.30;11.90;;;;;;;19.57;78.18;99593.06;7370816;39;20270;31
2023/05/08 12:52:01;;;;;;;11.70;10.60;;;;;;;19.62;78.39;99596.00;7380997;39;20372;31
2023/05/08 12:57:36;;;;;;;13.47;12.07;;;;;;;19.81;78.06;99599.72;7367753;39;21366;31
2023/05/08 13:03:08;;;;;;;11.40;10.20;;;;;;;19.78;77.03;99598.28;7380153;39;20263;31
2023/05/08 13:08:46;;;;;;;12.60;10.73;;;;;;;19.93;78.44;99595.25;7454247;38;20256;31
2023/05/08 13:14:20;;;;;;;13.00;11.65;;;;;;;19.88;76.41;99595.06;7439301;39;21309;31
2023/05/08 13:19:40;;;;;;;14.70;11.65;;;;;;;19.83;77.60;99602.25;7400542;39;20243;31
2023/05/08 13:25:10;;;;;;;13.95;12.35;;;;;;;19.80;77.66;99596.16;7401168;39;20531;31
2023/05/08 13:30:43;;;;;;;16.07;12.93;;;;;;;19.57;77.31;99586.78;7385608;39;20417;31
2023/05/08 13:36:19;;;;;;;15.70;14.10;;;;;;;19.40;78.97;99583.63;7384838;39;20336;31
2023/05/08 13:41:35;;;;;;;15.20;13.60;;;;;;;19.39;78.62;99584.69;7363122;39;20351;31
2023/05/08 13:47:11;;;;;;;14.80;13.27;;;;;;;19.39;79.75;99578.38;7380929;39;20234;31
2023/05/08 13:52:46;;;;;;;16.73;14.93;;;;;;;19.35;82.01;99572.47;7381657;39;20251;31
2023/05/08 13:58:21;;;;;;;18.70;15.83;;;;;;;19.24;82.43;99567.69;7454697;39;20248;31
2023/05/08 14:03:54;;;;;;;17.60;15.80;;;;;;;19.18;82.17;99557.59;7442825;39;20329;31
2023/05/08 14:09:30;;;;;;;20.00;17.80;;;;;;;19.22;82.15;99547.91;7400516;39;21158;31
2023/05/08 14:14:47;;;;;;;20.20;16.90;;;;;;;19.34;83.45;99540.75;7445843;39;20250;31
2023/05/08 14:20:24;;;;;;;17.30;15.60;;;;;;;19.29;82.67;99546.03;7400195;39;20394;31
2023/05/08 14:25:44;;;;;;;17.55;15.85;;;;;;;19.13;82.87;99541.84;7424135;39;21094;31
2023/05/08 14:31:16;;;;;;;20.40;16.50;;;;;;;19.06;84.09;99537.44;7444246;39;20276;31
2023/05/08 14:36:50;;;;;;;20.90;18.80;;;;;;;19.15;85.84;99547.09;7458702;39;20408;31
2023/05/08 14:42:25;;;;;;;18.73;16.73;;;;;;;19.24;84.44;99543.94;7360371;39;20328;31
2023/05/08 14:47:42;;;;;;;18.23;16.43;;;;;;;19.37;84.80;99541.16;7358981;39;20328;31
2023/05/08 14:53:28;;;;;;;18.23;16.15;;;;;;;19.49;83.99;99537.78;7333424;39;21247;31
2023/05/08 15:03:52;;;;;;;19.50;14.90;;;;;;;19.90;83.06;99542.88;7328274;39;20271;31
2023/05/08 15:09:25;;;;;;;16.27;14.55;;;;;;;19.89;80.96;99546.66;7383374;39;21225;31
2023/05/08 15:14:42;;;;;;;16.40;14.27;;;;;;;19.91;82.37;99541.81;7429405;39;20238;31
2023/05/08 15:19:59;;;;;;;15.75;14.05;;;;;;;19.93;80.40;99539.69;7422617;39;20250;31
2023/05/08 15:25:30;;;;;;;13.77;12.37;;;;;;;19.99;80.32;99531.47;7406549;39;21627;31
2023/05/08 15:31:02;;;;;;;12.97;11.63;;;;;;;20.35;79.18;99547.28;7403724;39;20286;31
2023/05/08 15:36:34;;;;;;;13.50;12.10;;;;;;;20.30;79.24;99549.84;7398424;39;21979;31
2023/05/08 15:42:10;;;;;;;13.55;12.00;;;;;;;20.20;79.73;99554.91;7386849;39;20297;31
2023/05/08 15:47:30;;;;;;;12.53;11.33;;;;;;;20.06;78.82;99540.47;7423172;39;21207;31
2023/05/08 15:53:03;;;;;;;13.20;11.80;;;;;;;19.88;77.93;99536.78;7415559;39;20297;31
2023/05/08 15:58:39;;;;;;;12.90;11.60;;;;;;;19.90;79.04;99537.41;7483879;38;20309;31
2023/05/08 16:04:14;;;;;;;13.47;12.07;;;;;;;19.89;78.52;99552.13;7485631;38;20266;31
2023/05/08 16:09:34;;;;;;;15.70;12.30;;;;;;;19.75;77.93;99552.19;7398031;39;20243;31
2023/05/08 16:15:12;;;;;;;14.00;12.50;;;;;;;19.76;79.43;99545.66;7402276;39;20473;31
2023/05/08 16:20:41;;;;;;;16.23;14.53;;;;;;;19.72;79.19;99547.16;7423379;39;20400;31
2023/05/08 16:25:59;;;;;;;15.17;13.70;;;;;;;19.62;79.06;99540.47;7395901;39;21916;31
2023/05/08 16:31:30;;;;;;;12.10;10.80;;;;;;;19.54;79.08;99543.44;7445639;39;20288;31
2023/05/08 16:37:05;;;;;;;14.20;12.80;;;;;;;19.55;78.86;99539.66;7401032;39;20247;31
2023/05/08 16:42:25;;;;;;;15.23;12.83;;;;;;;19.57;79.74;99546.56;7432034;39;20220;31
2023/05/08 16:48:00;;;;;;;13.80;12.50;;;;;;;19.56;79.15;99541.34;7446232;39;20238;31
2023/05/08 16:53:17;;;;;;;15.07;12.97;;;;;;;19.61;79.44;99550.59;7419674;39;20251;31
2023/05/08 16:58:50;;;;;;;14.60;13.20;;;;;;;19.57;79.65;99553.97;7420908;39;21274;31
2023/05/08 17:04:26;;;;;;;14.20;12.80;;;;;;;19.46;80.05;99551.87;7401346;39;20247;31
2023/05/08 17:09:58;;;;;;;15.40;13.80;;;;;;;19.43;79.59;99542.22;7421453;39;20385;31
2023/05/08 17:15:16;;;;;;;15.10;12.80;;;;;;;19.44;79.33;99543.06;7429364;39;20249;31
2023/05/08 17:20:49;;;;;;;14.05;12.60;;;;;;;19.45;80.53;99542.84;7452046;39;21314;31
2023/05/08 17:26:22;;;;;;;14.35;12.90;;;;;;;19.39;80.54;99546.41;7398899;39;20357;31
2023/05/08 17:31:39;;;;;;;14.82;13.32;;;;;;;19.42;80.67;99545.13;7155838;39;20240;31
2023/05/08 17:37:11;;;;;;;14.90;13.40;;;;;;;19.34;80.02;99540.75;7445202;39;21269;31
2023/05/08 17:42:44;;;;;;;15.10;13.60;;;;;;;19.32;80.64;99548.31;7423685;39;20267;31
2023/05/08 17:53:23;;;;;;;15.07;13.53;;;;;;;19.26;80.80;99536.34;7419768;39;20267;31
2023/05/08 18:03:59;;;;;;;14.50;13.00;;;;;;;19.14;80.49;99550.87;7388138;39;20322;31
2023/05/08 18:09:32;;;;;;;14.65;13.07;;;;;;;19.09;81.30;99547.94;7357292;39;21888;31
2023/05/08 18:14:50;;;;;;;15.37;12.90;;;;;;;19.16;81.08;99549.63;7338457;39;22006;31
2023/05/08 18:20:08;;;;;;;13.97;12.37;;;;;;;19.11;81.36;99563.09;7362390;39;21326;31
2023/05/08 18:25:44;;;;;;;15.50;13.80;;;;;;;19.07;81.27;99563.72;7381975;39;20282;31
2023/05/08 18:31:16;;;;;;;13.88;12.43;;;;;;;19.06;81.84;99562.88;7407001;39;21215;31
2023/05/08 18:36:49;;;;;;;12.40;11.10;;;;;;;19.08;81.18;99554.47;7386505;39;21259;31
2023/05/08 18:42:24;;;;;;;14.43;12.43;;;;;;;19.02;82.24;99555.31;7379283;39;21177;31
2023/05/08 18:47:45;;;;;;;13.55;12.15;;;;;;;19.00;82.41;99558.25;7339044;39;21316;31
2023/05/08 18:53:17;;;;;;;13.00;11.70;;;;;;;18.95;82.31;99557.22;7332332;39;20243;31
2023/05/08 18:58:50;;;;;;;14.05;12.65;;;;;;;18.87;81.84;99545.44;7374308;39;20414;31
2023/05/08 19:04:10;;;;;;;13.40;11.70;;;;;;;18.87;81.73;99553.63;7411921;39;20398;31
2023/05/08 19:09:48;;;;;;;13.55;12.15;;;;;;;18.81;82.83;99549.03;7466014;38;20364;31
2023/05/08 19:15:26;;;;;;;14.00;12.20;;;;;;;18.77;82.66;99542.31;7470526;39;20254;31
2023/05/08 19:20:46;;;;;;;13.65;12.25;;;;;;;18.77;81.63;99546.94;7479343;39;20250;31
2023/05/08 19:26:22;;;;;;;13.10;11.80;;;;;;;18.70;82.97;99552.37;7510834;38;20252;31
2023/05/08 19:31:55;;;;;;;13.35;11.95;;;;;;;18.62;82.72;99541.69;7431450;39;20333;31
2023/05/08 19:37:28;;;;;;;13.00;11.03;;;;;;;18.55;82.31;99549.03;7420302;39;21287;31
2023/05/08 19:43:03;;;;;;;13.57;12.20;;;;;;;18.45;83.13;99557.59;7464106;39;20372;31
2023/05/08 19:53:38;;;;;;;13.10;11.80;;;;;;;18.30;82.66;99564.28;7461776;39;20282;31
2023/05/08 20:04:00;;;;;;;12.40;11.15;;;;;;;18.30;82.94;99565.13;7462366;39;20268;31
2023/05/08 20:14:41;;;;;;;13.83;11.87;;;;;;;18.01;83.90;99569.06;7511127;38;20265;31
2023/05/08 20:20:30;;;;;;;14.50;12.10;;;;;;;17.81;83.73;99572.78;7463365;39;21391;31
2023/05/08 20:31:05;;;;;;;14.83;13.17;;;;;;;17.68;84.71;99570.00;7483819;39;20356;31
2023/05/08 20:41:42;;;;;;;14.60;12.20;;;;;;;17.59;85.00;99557.56;7422287;39;20294;31
2023/05/08 20:47:15;;;;;;;13.60;12.30;;;;;;;17.56;85.16;99547.88;7400011;39;20317;31
2023/05/08 20:52:47;;;;;;;15.10;13.53;;;;;;;17.54;85.09;99550.81;7386635;39;20488;31
2023/05/08 20:58:19;;;;;;;13.90;12.50;;;;;;;17.49;85.43;99549.72;7356200;39;21229;31
2023/05/08 21:03:55;;;;;;;16.87;13.50;;;;;;;17.49;84.89;99553.31;7278787;39;20278;31
2023/05/08 21:09:15;;;;;;;13.80;11.87;;;;;;;17.48;85.29;99554.34;7253771;39;20261;31
2023/05/08 21:14:48;;;;;;;14.20;12.65;;;;;;;17.27;85.21;99543.53;7302118;39;21293;31
2023/05/08 21:20:23;;;;;;;13.53;12.23;;;;;;;17.26;85.94;99543.72;7357889;39;21390;31
2023/05/08 21:25:59;;;;;;;14.50;13.00;;;;;;;17.25;85.82;99542.88;7398404;39;20265;31
2023/05/08 21:31:16;;;;;;;14.67;13.07;;;;;;;17.28;86.02;99538.94;7398585;39;20237;31
2023/05/08 21:36:53;;;;;;;13.40;12.00;;;;;;;17.20;85.52;99545.38;7422668;39;20266;31
2023/05/08 21:42:13;;;;;;;13.20;11.80;;;;;;;17.17;86.17;99542.22;7398145;39;20396;31
2023/05/08 21:47:30;;;;;;;13.00;11.60;;;;;;;17.29;85.87;99541.44;7399096;39;20466;31
2023/05/08 21:53:04;;;;;;;15.20;13.20;;;;;;;17.18;85.99;99522.09;7403710;39;20379;31
2023/05/08 22:03:38;;;;;;;15.15;13.00;;;;;;;17.11;86.23;99517.44;7377241;39;20640;31
2023/05/08 22:09:14;;;;;;;13.80;12.40;;;;;;;17.13;85.78;99515.38;7358060;39;20349;31
2023/05/08 22:14:49;;;;;;;17.50;13.30;;;;;;;17.11;86.35;99516.62;7321019;39;21318;31
2023/05/08 22:20:19;;;;;;;15.80;12.80;;;;;;;16.95;85.98;99504.16;7357832;39;21365;31
2023/05/08 22:30:57;;;;;;;16.50;13.90;;;;;;;16.90;86.44;99498.47;7337545;39;20348;31
2023/05/08 22:41:33;;;;;;;17.57;13.43;;;;;;;16.82;87.60;99495.91;7362516;39;20272;31
2023/05/08 22:47:06;;;;;;;16.87;14.17;;;;;;;16.87;87.53;99481.69;7377726;39;21249;31
2023/05/08 22:52:38;;;;;;;16.80;13.85;;;;;;;16.94;87.08;99480.69;7422941;39;20242;31
2023/05/08 22:57:55;;;;;;;14.53;12.90;;;;;;;16.92;87.51;99485.50;7466725;39;20273;31
2023/05/08 23:03:32;;;;;;;18.10;13.25;;;;;;;16.91;87.29;99470.22;7464753;39;20248;31
2023/05/08 23:08:52;;;;;;;16.28;13.62;;;;;;;16.90;86.94;99471.25;7472145;39;20252;31
2023/05/08 23:14:13;;;;;;;14.53;13.10;;;;;;;16.95;87.79;99476.94;7466361;39;20298;31
2023/05/08 23:19:50;;;;;;;14.43;12.97;;;;;;;17.01;87.01;99457.06;7512177;38;20248;31
2023/05/08 23:25:21;;;;;;;15.53;14.03;;;;;;;16.91;87.80;99445.69;7464194;39;20301;31
2023/05/08 23:36:01;;;;;;;16.50;14.60;;;;;;;16.84;87.73;99428.50;7439741;39;20279;31
2023/05/08 23:46:37;;;;;;;15.45;13.80;;;;;;;16.86;87.91;99420.94;7424678;39;20363;31
2023/05/08 23:52:10;;;;;;;16.03;14.00;;;;;;;16.91;86.98;99410.31;7421536;39;21387;31
